Time;durP1;ratioP1;P1;durP2;ratioP2;P2;SDS_P1;SDS_P2;PMS_P1;PMS_P2;Temp;Humidity;BMP_temperature;BMP_pressure;BME280_temperature;BME280_humidity;BME280_pressure;Samples;Min_cycle;Max_cycle;Signal;HPM_P1;HPM_P2
2021/05/21 00:01:14;;;;;;;1.47;1.07;;;;;;;19.47;76.16;97464.69;5051842;28;20201;-67
2021/05/21 00:03:41;;;;;;;1.20;1.10;;;;;;;19.46;76.17;97471.47;5050414;28;20639;-66
2021/05/21 00:06:08;;;;;;;1.00;0.93;;;;;;;19.45;76.11;97464.63;5051944;28;20262;-66
2021/05/21 00:08:35;;;;;;;1.17;1.17;;;;;;;19.31;76.16;97432.69;5052145;28;20197;-66
2021/05/21 00:11:02;;;;;;;1.00;1.00;;;;;;;19.46;76.16;97460.41;5041191;28;20221;-67
2021/05/21 00:13:29;;;;;;;1.10;1.10;;;;;;;19.45;76.28;97439.16;5051860;28;20201;-66
2021/05/21 00:15:55;;;;;;;1.50;1.13;;;;;;;19.46;76.79;97445.13;5051470;28;20221;-66
2021/05/21 00:18:22;;;;;;;1.00;1.00;;;;;;;19.46;76.25;97435.81;5051183;28;20259;-67
2021/05/21 00:20:48;;;;;;;1.27;1.17;;;;;;;19.47;76.15;97432.44;5051821;28;20201;-66
2021/05/21 00:23:17;;;;;;;1.10;1.00;;;;;;;19.46;76.33;97424.72;5039699;28;20296;-66
2021/05/21 00:25:44;;;;;;;1.20;1.10;;;;;;;19.47;76.18;97434.09;5051604;28;20274;-66
2021/05/21 00:28:10;;;;;;;1.20;1.10;;;;;;;19.47;76.15;97437.53;5050327;28;20233;-66
2021/05/21 00:30:37;;;;;;;1.10;1.00;;;;;;;19.47;76.23;97440.06;5044929;28;20243;-66
2021/05/21 00:33:03;;;;;;;1.37;1.27;;;;;;;19.47;76.06;97427.34;5051683;28;20197;-67
2021/05/21 00:35:30;;;;;;;1.30;1.20;;;;;;;19.47;76.05;97419.69;5033458;28;20262;-67
2021/05/21 00:37:57;;;;;;;1.20;1.10;;;;;;;19.47;75.98;97421.34;5051064;28;20267;-67
2021/05/21 00:40:23;;;;;;;2.17;1.10;;;;;;;19.47;76.21;97418.81;5051215;28;20201;-67
2021/05/21 00:42:50;;;;;;;1.10;1.00;;;;;;;19.47;75.76;97422.22;5050099;28;20229;-67
2021/05/21 00:45:16;;;;;;;1.30;1.20;;;;;;;19.47;76.11;97419.69;5033416;28;20313;-67
2021/05/21 00:47:43;;;;;;;1.00;1.00;;;;;;;19.47;76.08;97418.81;5050740;28;20298;-66
2021/05/21 00:50:10;;;;;;;1.10;1.10;;;;;;;19.46;76.06;97424.72;5030723;28;20250;-66
2021/05/21 00:52:38;;;;;;;1.10;1.10;;;;;;;19.45;76.07;97428.94;5049685;28;20197;-66
2021/05/21 00:55:06;;;;;;;1.13;1.10;;;;;;;19.45;76.06;97420.47;5040918;28;20283;-67
2021/05/21 00:57:32;;;;;;;1.00;1.00;;;;;;;19.44;76.41;97417.03;5049281;28;20201;-67
2021/05/21 00:59:59;;;;;;;0.97;0.97;;;;;;;18.91;76.71;97301.25;5030677;28;20228;-66
2021/05/21 01:02:26;;;;;;;1.00;1.00;;;;;;;19.44;76.76;97401.75;5022907;28;20656;-67
2021/05/21 01:04:53;;;;;;;1.00;1.00;;;;;;;19.43;76.03;97392.38;5034271;28;20649;-66
2021/05/21 01:07:20;;;;;;;1.10;1.10;;;;;;;19.44;76.27;97396.66;5037961;28;20236;-66
2021/05/21 01:09:46;;;;;;;0.90;0.90;;;;;;;19.44;76.23;97395.75;5040780;28;20225;-67
2021/05/21 01:12:13;;;;;;;0.93;0.93;;;;;;;19.44;76.38;97388.13;5044220;28;20266;-67
2021/05/21 01:14:50;;;;;;;1.30;1.20;;;;;;;19.43;76.36;97394.91;5046846;28;20252;-67
2021/05/21 01:17:17;;;;;;;0.80;0.80;;;;;;;19.45;76.24;97384.78;5050306;28;20219;-66
2021/05/21 01:19:44;;;;;;;1.07;1.07;;;;;;;19.44;76.24;97373.69;5049479;28;20256;-67
2021/05/21 01:22:11;;;;;;;1.07;1.07;;;;;;;19.43;76.29;97371.09;5050292;28;20243;-66
2021/05/21 01:24:37;;;;;;;1.30;1.20;;;;;;;19.44;76.26;97378.81;5049857;28;20259;-66
2021/05/21 01:27:05;;;;;;;1.00;1.00;;;;;;;19.44;76.35;97365.19;5037658;28;20213;-66
2021/05/21 01:29:32;;;;;;;1.10;1.10;;;;;;;19.44;76.27;97355.88;5049297;28;20201;-66
2021/05/21 01:31:58;;;;;;;1.00;1.00;;;;;;;19.43;76.78;97354.16;5032550;28;20288;-67
2021/05/21 01:34:25;;;;;;;1.10;1.00;;;;;;;16.56;76.03;96874.69;5050150;28;20240;-66
2021/05/21 01:36:52;;;;;;;1.00;1.00;;;;;;;19.29;76.17;97322.22;5049727;28;20237;-67
2021/05/21 01:39:18;;;;;;;1.13;1.03;;;;;;;19.45;76.23;97351.66;5030224;28;20221;-66
2021/05/21 01:41:45;;;;;;;1.27;1.10;;;;;;;19.44;76.23;97342.25;5049751;28;20634;-67
2021/05/21 01:44:12;;;;;;;1.10;1.00;;;;;;;19.43;76.15;97333.75;5050195;28;20255;-67
2021/05/21 01:46:39;;;;;;;1.00;1.00;;;;;;;19.44;76.07;97337.16;5049524;28;20666;-67
2021/05/21 01:49:06;;;;;;;1.20;1.10;;;;;;;19.43;76.33;97343.06;5032751;28;20828;-67
2021/05/21 01:51:33;;;;;;;0.97;0.97;;;;;;;19.42;76.38;97343.91;5049864;28;20201;-66
2021/05/21 01:54:15;;;;;;;1.03;0.97;;;;;;;19.43;76.26;97340.53;5049383;28;20217;-67
2021/05/21 01:56:43;;;;;;;1.00;1.00;;;;;;;19.42;76.31;97313.31;5049443;28;20689;-67
2021/05/21 01:59:10;;;;;;;1.20;1.10;;;;;;;19.42;76.49;97318.41;5049528;28;20263;-67
2021/05/21 02:01:36;;;;;;;0.93;0.93;;;;;;;19.42;76.50;97310.78;5044495;28;20683;-66
2021/05/21 02:04:04;;;;;;;1.20;1.10;;;;;;;19.42;76.47;97310.78;5049437;28;20785;-66
2021/05/21 02:06:33;;;;;;;1.13;1.03;;;;;;;19.42;76.53;97308.22;5049085;28;20197;-67
2021/05/21 02:08:59;;;;;;;1.13;1.10;;;;;;;19.41;75.82;97303.91;5049735;28;20228;-67
2021/05/21 02:11:26;;;;;;;0.90;0.90;;;;;;;19.42;76.40;97303.13;5049611;28;20254;-66
2021/05/21 02:13:52;;;;;;;1.23;1.13;;;;;;;19.43;76.81;97307.41;5049085;28;20237;-66
2021/05/21 02:16:19;;;;;;;1.00;1.00;;;;;;;19.42;76.29;97306.50;5047194;28;20423;-66
2021/05/21 02:18:46;;;;;;;1.07;1.07;;;;;;;19.42;76.40;97314.16;5049437;28;20239;-67
2021/05/21 02:21:12;;;;;;;0.90;0.90;;;;;;;19.42;76.47;97316.72;5049435;28;20236;-66
2021/05/21 02:23:39;;;;;;;1.00;1.00;;;;;;;19.42;76.38;97316.72;5049268;28;20658;-66
2021/05/21 02:26:06;;;;;;;1.00;1.00;;;;;;;19.43;76.35;97309.94;5042536;28;20263;-66
2021/05/21 02:28:32;;;;;;;1.20;1.10;;;;;;;19.43;76.36;97297.19;5034636;28;20450;-67
2021/05/21 02:31:00;;;;;;;0.90;0.90;;;;;;;19.43;76.21;97297.19;5053509;28;20197;-66
2021/05/21 02:33:27;;;;;;;1.10;1.10;;;;;;;19.43;76.16;97295.53;5030675;28;20197;-67
2021/05/21 02:35:54;;;;;;;1.20;1.10;;;;;;;19.43;76.52;97302.28;5053675;28;20252;-66
2021/05/21 02:38:20;;;;;;;0.97;0.87;;;;;;;19.42;75.97;97292.94;5052939;28;20225;-66
2021/05/21 02:40:47;;;;;;;1.30;1.20;;;;;;;19.41;75.85;97297.16;5053493;28;20682;-66
2021/05/21 02:43:14;;;;;;;1.53;1.10;;;;;;;19.23;76.20;97272.69;5052996;28;20251;-67
2021/05/21 02:45:41;;;;;;;1.13;1.03;;;;;;;19.41;76.71;97298.81;5015726;28;20272;-66
2021/05/21 02:48:07;;;;;;;1.20;1.10;;;;;;;19.42;76.80;97290.38;5039873;28;20306;-67
2021/05/21 02:50:34;;;;;;;1.23;1.13;;;;;;;19.21;76.33;97248.81;5053292;28;20228;-66
2021/05/21 02:53:00;;;;;;;0.87;0.87;;;;;;;19.40;76.15;97281.81;5042671;28;20201;-67
2021/05/21 02:55:27;;;;;;;1.10;1.10;;;;;;;19.40;76.52;97274.16;5052856;28;20274;-67
2021/05/21 02:57:54;;;;;;;1.13;1.13;;;;;;;19.40;76.17;97271.63;5052934;28;20197;-66
2021/05/21 03:00:20;;;;;;;1.07;1.07;;;;;;;19.41;76.67;97275.88;5052452;28;20258;-66
2021/05/21 03:02:47;;;;;;;0.90;0.90;;;;;;;19.40;76.50;97262.31;5041270;28;20240;-66
2021/05/21 03:05:17;;;;;;;1.00;1.00;;;;;;;19.41;76.45;97248.72;5052439;28;20651;-66
2021/05/21 03:07:44;;;;;;;1.00;1.00;;;;;;;19.41;76.35;97253.81;5052856;28;20761;-66
2021/05/21 03:10:11;;;;;;;1.10;1.10;;;;;;;19.41;76.50;97258.91;5052576;28;20205;-66
2021/05/21 03:12:38;;;;;;;1.30;1.20;;;;;;;19.42;76.55;97270.00;5052273;28;20201;-67
2021/05/21 03:15:05;;;;;;;1.00;1.00;;;;;;;19.41;76.33;97253.81;5052682;28;20569;-66
2021/05/21 03:17:32;;;;;;;0.90;0.90;;;;;;;19.42;76.35;97258.09;5052931;28;20223;-67
2021/05/21 03:19:59;;;;;;;1.13;1.10;;;;;;;19.42;76.32;97257.25;5052403;28;20849;-66
2021/05/21 03:22:26;;;;;;;0.90;0.90;;;;;;;19.42;76.38;97257.25;5052501;28;20651;-66
2021/05/21 03:24:53;;;;;;;0.90;0.90;;;;;;;19.42;76.39;97252.16;5052678;28;20259;-66
2021/05/21 03:27:19;;;;;;;1.17;1.10;;;;;;;19.40;76.22;97247.00;5052186;28;20646;-67
2021/05/21 03:29:46;;;;;;;0.90;0.90;;;;;;;19.40;76.24;97243.59;5052650;28;20558;-66
2021/05/21 03:32:13;;;;;;;0.90;0.90;;;;;;;19.40;76.22;97244.47;5052345;28;20292;-66
2021/05/21 03:34:40;;;;;;;1.00;1.00;;;;;;;19.41;76.36;97240.22;5052497;28;20217;-66
2021/05/21 03:37:07;;;;;;;0.90;0.90;;;;;;;19.39;76.25;97224.03;5051995;28;20201;-67
2021/05/21 03:39:34;;;;;;;1.00;1.00;;;;;;;19.38;76.03;97238.44;5051925;28;20295;-66
2021/05/21 03:42:00;;;;;;;0.93;0.90;;;;;;;19.38;76.77;97240.97;5052041;28;20710;-66
2021/05/21 03:44:27;;;;;;;1.00;1.00;;;;;;;19.38;76.49;97220.59;5052408;28;20246;-66
2021/05/21 03:46:53;;;;;;;1.13;0.97;;;;;;;19.40;76.34;97223.19;5051697;28;20255;-66
2021/05/21 03:49:21;;;;;;;1.00;1.00;;;;;;;19.39;76.31;97222.31;5052330;28;20247;-66
2021/05/21 03:51:48;;;;;;;1.27;1.10;;;;;;;19.40;76.44;97225.75;5051711;28;20646;-66
2021/05/21 03:54:14;;;;;;;1.00;1.00;;;;;;;19.39;76.58;97216.38;5051982;28;20221;-66
2021/05/21 03:56:41;;;;;;;1.00;0.90;;;;;;;19.40;76.59;97210.47;5051770;28;20193;-66
2021/05/21 03:59:08;;;;;;;0.97;0.97;;;;;;;19.39;76.06;97213.84;5034145;28;20729;-66
2021/05/21 04:01:34;;;;;;;0.93;0.93;;;;;;;19.40;76.67;97218.97;5052142;28;20620;-66
2021/05/21 04:04:02;;;;;;;0.90;0.90;;;;;;;19.41;76.36;97217.28;5051511;28;20260;-66
2021/05/21 04:06:28;;;;;;;1.20;1.10;;;;;;;19.41;76.21;97212.19;5051526;28;20201;-67
2021/05/21 04:08:55;;;;;;;1.00;1.00;;;;;;;19.41;76.19;97201.97;5051385;28;20235;-67
2021/05/21 04:11:21;;;;;;;1.00;1.00;;;;;;;19.41;75.94;97200.31;5051991;28;20197;-66
2021/05/21 04:13:48;;;;;;;0.90;0.90;;;;;;;19.40;76.34;97206.25;5051176;28;20448;-67
2021/05/21 04:16:15;;;;;;;0.90;0.90;;;;;;;19.40;76.17;97200.25;5051343;28;20201;-66
2021/05/21 04:18:41;;;;;;;1.07;1.07;;;;;;;19.39;76.28;97199.38;5051323;28;20201;-66
2021/05/21 04:21:08;;;;;;;1.00;1.00;;;;;;;19.40;76.38;97202.81;5051696;28;20205;-66
2021/05/21 04:23:40;;;;;;;1.00;1.00;;;;;;;19.39;76.34;97199.38;5051543;28;20247;-66
2021/05/21 04:26:07;;;;;;;1.00;1.00;;;;;;;19.39;76.55;97201.94;5051120;28;20204;-66
2021/05/21 04:28:33;;;;;;;0.90;0.90;;;;;;;19.38;76.10;97196.78;5050978;28;20193;-66
2021/05/21 04:31:00;;;;;;;0.90;0.90;;;;;;;19.38;76.62;97197.66;5039857;28;20197;-66
2021/05/21 04:33:27;;;;;;;1.07;1.00;;;;;;;19.37;76.57;97193.41;5051049;28;20262;-66
2021/05/21 04:35:53;;;;;;;1.00;1.00;;;;;;;19.38;76.44;97194.25;5051259;28;20592;-66
2021/05/21 04:38:20;;;;;;;0.90;0.90;;;;;;;19.39;76.32;97201.09;5051019;28;20618;-66
2021/05/21 04:40:47;;;;;;;0.90;0.90;;;;;;;19.38;76.30;97192.56;5051059;28;20252;-66
2021/05/21 04:43:13;;;;;;;0.90;0.90;;;;;;;19.39;76.34;97207.03;5050942;28;20203;-66
2021/05/21 04:45:40;;;;;;;0.97;0.97;;;;;;;19.39;76.35;97198.53;5050782;28;20663;-66
2021/05/21 04:48:07;;;;;;;1.10;1.10;;;;;;;19.39;76.46;97204.47;5050819;28;20255;-67
2021/05/21 04:50:33;;;;;;;1.03;1.03;;;;;;;19.38;76.12;97197.66;5050420;28;20193;-66
2021/05/21 04:53:00;;;;;;;1.00;1.00;;;;;;;19.40;76.31;97205.34;5051061;28;20247;-66
2021/05/21 04:55:26;;;;;;;0.90;0.90;;;;;;;19.41;76.35;97196.88;5050642;28;20654;-66
2021/05/21 04:57:53;;;;;;;1.00;1.00;;;;;;;19.40;75.87;97196.03;5049023;28;20209;-66
2021/05/21 05:00:20;;;;;;;0.90;0.90;;;;;;;19.40;76.22;97192.63;5050239;28;20217;-67
2021/05/21 05:02:46;;;;;;;1.00;1.00;;;;;;;19.40;76.40;97188.41;5050988;28;20250;-66
2021/05/21 05:05:13;;;;;;;0.90;0.90;;;;;;;19.26;76.15;97155.59;5057334;22;20260;-68
2021/05/21 05:07:40;;;;;;;0.90;0.90;;;;;;;19.40;76.02;97192.63;4995207;28;20198;-68
2021/05/21 05:10:07;;;;;;;1.00;1.00;;;;;;;19.39;76.24;97189.19;5026281;28;20288;-68
2021/05/21 05:12:33;;;;;;;0.93;0.93;;;;;;;19.34;76.19;97180.56;5025710;28;20621;-68
2021/05/21 05:15:00;;;;;;;0.90;0.90;;;;;;;18.78;76.39;97085.25;4991574;28;20217;-69
2021/05/21 05:17:26;;;;;;;1.17;0.90;;;;;;;19.38;75.96;97186.59;4995072;28;20198;-68
2021/05/21 05:19:53;;;;;;;0.90;0.90;;;;;;;19.38;76.32;97184.03;5019933;28;20585;-68
2021/05/21 05:22:19;;;;;;;1.00;1.00;;;;;;;19.30;75.98;97173.59;5025810;28;20252;-69
2021/05/21 05:24:46;;;;;;;1.47;1.10;;;;;;;19.24;75.90;97164.84;5003949;28;21296;-68
2021/05/21 05:27:13;;;;;;;0.97;0.97;;;;;;;19.24;76.58;97158.09;4995741;28;20205;-68
2021/05/21 05:29:45;;;;;;;0.80;0.80;;;;;;;19.25;76.19;97146.22;5000264;28;20201;-68
2021/05/21 05:32:12;;;;;;;0.93;0.93;;;;;;;19.40;75.91;97172.22;4978106;28;20198;-70
2021/05/21 05:34:39;;;;;;;0.90;0.90;;;;;;;18.89;76.23;97089.84;4997705;28;20214;-70
2021/05/21 05:37:06;;;;;;;0.90;0.90;;;;;;;19.40;76.18;97182.44;4994697;28;20210;-66
2021/05/21 05:39:32;;;;;;;0.90;0.90;;;;;;;19.24;76.34;97152.13;5007203;28;20263;-67
2021/05/21 05:41:59;;;;;;;0.87;0.87;;;;;;;19.31;76.19;97152.44;5010911;28;20656;-67
2021/05/21 05:44:26;;;;;;;1.10;1.07;;;;;;;19.41;76.59;97182.47;5007337;28;20279;-69
2021/05/21 05:46:52;;;;;;;1.00;1.00;;;;;;;18.85;76.08;97088.03;5021141;28;20194;-68
2021/05/21 05:49:19;;;;;;;1.10;1.00;;;;;;;18.78;76.28;97070.84;5001504;28;20230;-68
2021/05/21 05:51:45;;;;;;;0.90;0.90;;;;;;;19.39;76.03;97181.53;5008750;28;20252;-69
2021/05/21 05:54:12;;;;;;;1.27;0.80;;;;;;;19.36;76.15;97176.34;5025000;28;20218;-71
2021/05/21 05:56:39;;;;;;;1.00;1.00;;;;;;;18.90;75.88;97090.75;5024824;28;20615;-68
2021/05/21 05:59:05;;;;;;;1.10;1.00;;;;;;;19.39;76.15;97170.50;5007524;28;20202;-66
2021/05/21 06:01:32;;;;;;;0.90;0.90;;;;;;;19.40;76.17;97169.69;5023444;28;20559;-68
2021/05/21 06:03:59;;;;;;;0.90;0.90;;;;;;;18.97;76.18;97092.66;5007892;28;20194;-69
2021/05/21 06:06:25;;;;;;;1.00;1.00;;;;;;;19.39;75.91;97163.72;4998214;28;20221;-68
2021/05/21 06:08:55;;;;;;;0.90;0.90;;;;;;;18.50;76.14;97004.56;5007268;28;20263;-68
2021/05/21 06:11:22;;;;;;;1.10;1.10;;;;;;;19.32;76.59;97140.53;4987478;28;20276;-67
2021/05/21 06:13:49;;;;;;;0.80;0.80;;;;;;;19.26;75.62;97127.56;4995661;28;20519;-68
2021/05/21 06:16:16;;;;;;;1.10;1.10;;;;;;;19.33;76.25;97139.75;5006245;28;20691;-66
2021/05/21 06:18:42;;;;;;;0.90;0.90;;;;;;;19.25;76.26;97124.19;4991958;28;20202;-68
2021/05/21 06:21:09;;;;;;;0.90;0.90;;;;;;;19.25;76.08;97116.53;4992557;28;20302;-67
2021/05/21 06:23:38;;;;;;;0.90;0.90;;;;;;;19.33;75.99;97121.91;5009479;28;20198;-68
2021/05/21 06:28:37;;;;;;;0.90;0.90;;;;;;;19.39;76.06;97140.78;5008539;28;20673;-68
2021/05/21 06:31:04;;;;;;;0.90;0.90;;;;;;;19.40;75.95;97147.63;5022080;28;20206;-69
2021/05/21 06:33:30;;;;;;;0.93;0.93;;;;;;;19.16;76.13;97100.94;5008696;28;21107;-68
2021/05/21 06:35:57;;;;;;;0.90;0.90;;;;;;;19.39;76.22;97137.38;4993043;28;20214;-68
2021/05/21 06:38:23;;;;;;;0.90;0.90;;;;;;;19.40;75.86;97141.66;5016005;28;20577;-68
2021/05/21 06:40:50;;;;;;;0.97;0.97;;;;;;;19.40;75.79;97137.44;5009182;28;20280;-68
2021/05/21 06:43:19;;;;;;;1.10;1.10;;;;;;;19.25;75.80;97102.94;5027657;28;20248;-69
2021/05/21 06:45:46;;;;;;;1.17;1.10;;;;;;;19.34;76.01;97118.53;4999803;28;20221;-65
2021/05/21 06:48:12;;;;;;;0.97;0.97;;;;;;;18.62;75.87;96988.84;4978622;28;20247;-68
2021/05/21 06:50:39;;;;;;;0.90;0.90;;;;;;;19.39;76.60;97119.56;4997433;28;20198;-68
2021/05/21 06:53:06;;;;;;;1.00;1.00;;;;;;;19.24;76.00;97085.88;5027855;28;20208;-67
2021/05/21 06:55:32;;;;;;;1.00;1.00;;;;;;;18.90;75.99;97016.91;4998677;28;20253;-67
2021/05/21 06:57:59;;;;;;;0.90;0.90;;;;;;;18.92;76.44;97018.66;4990498;28;20198;-67
2021/05/21 07:00:26;;;;;;;0.87;0.87;;;;;;;19.34;75.85;97085.41;4988382;28;20221;-68
2021/05/21 07:02:52;;;;;;;1.00;1.00;;;;;;;19.38;75.80;97095.75;4999722;28;20198;-68
2021/05/21 07:05:19;;;;;;;1.00;1.00;;;;;;;19.38;75.79;97094.88;5027249;28;20225;-68
2021/05/21 07:07:46;;;;;;;1.00;1.00;;;;;;;19.25;76.10;97063.03;5006084;28;20251;-66
2021/05/21 07:10:13;;;;;;;0.90;0.90;;;;;;;19.30;75.87;97081.06;4979007;28;20255;-70
2021/05/21 07:12:39;;;;;;;1.03;1.03;;;;;;;19.32;75.54;97080.28;4995922;28;20244;-67
2021/05/21 07:15:06;;;;;;;0.90;0.90;;;;;;;19.25;75.78;97059.63;5012901;28;20283;-65
2021/05/21 07:17:33;;;;;;;0.83;0.83;;;;;;;19.11;75.82;97025.19;4995874;28;20238;-70
2021/05/21 07:19:59;;;;;;;0.90;0.90;;;;;;;19.25;76.07;97045.22;4993144;28;20304;-68
2021/05/21 07:22:26;;;;;;;0.90;0.90;;;;;;;18.85;75.74;96983.66;5011857;28;20233;-67
2021/05/21 07:24:53;;;;;;;1.30;1.20;;;;;;;19.41;75.76;97084.75;5011142;28;20308;-69
2021/05/21 07:27:20;;;;;;;0.70;0.70;;;;;;;19.40;75.79;97073.72;5029159;28;20248;-68
2021/05/21 07:29:46;;;;;;;1.00;1.00;;;;;;;19.41;75.71;97074.56;5009256;28;20201;-67
2021/05/21 07:32:13;;;;;;;0.87;0.87;;;;;;;19.40;75.61;97071.19;4996404;28;20202;-67
2021/05/21 07:34:40;;;;;;;0.90;0.90;;;;;;;19.40;75.81;97071.19;5025828;28;20225;-68
2021/05/21 07:37:06;;;;;;;1.00;1.00;;;;;;;19.39;75.88;97068.59;5012149;28;20645;-68
2021/05/21 07:39:36;;;;;;;1.17;1.10;;;;;;;19.23;75.81;97041.75;5027090;28;20562;-66
2021/05/21 07:42:03;;;;;;;0.90;0.90;;;;;;;18.58;75.75;96926.81;5010883;28;20292;-68
2021/05/21 07:44:30;;;;;;;0.80;0.80;;;;;;;19.20;75.76;97031.47;4994796;28;20245;-68
2021/05/21 07:46:56;;;;;;;0.90;0.90;;;;;;;19.24;75.88;97034.94;5011480;28;20733;-66
2021/05/21 07:49:24;;;;;;;0.90;0.90;;;;;;;19.38;75.77;97067.72;5010906;28;20248;-69
2021/05/21 07:51:51;;;;;;;0.90;0.90;;;;;;;18.91;75.75;96976.22;5022987;28;20219;-71
2021/05/21 07:54:18;;;;;;;1.00;1.00;;;;;;;18.85;75.71;96953.13;5009203;28;20277;-67
2021/05/21 07:56:45;;;;;;;0.83;0.83;;;;;;;19.35;75.75;97042.16;4991988;28;20343;-68
2021/05/21 07:59:13;;;;;;;0.90;0.90;;;;;;;19.40;75.51;97055.91;5008815;28;20629;-67
2021/05/21 08:01:40;;;;;;;0.90;0.90;;;;;;;18.87;75.66;96954.03;5029298;28;20217;-67
2021/05/21 08:04:06;;;;;;;1.00;1.00;;;;;;;19.39;75.82;97051.59;5002730;28;20202;-68
2021/05/21 08:06:34;;;;;;;1.00;1.00;;;;;;;19.40;76.06;97043.16;5027783;28;20205;-67
2021/05/21 08:09:04;;;;;;;0.90;0.90;;;;;;;19.24;75.73;97017.09;5020831;28;20193;-68
2021/05/21 08:11:31;;;;;;;0.90;0.90;;;;;;;18.94;75.78;96961.03;5007581;28;20625;-67
2021/05/21 08:13:58;;;;;;;1.30;1.20;;;;;;;19.16;75.51;96993.09;4999848;28;20201;-68
2021/05/21 08:16:27;;;;;;;0.90;0.90;;;;;;;19.33;75.67;97027.63;5006581;28;20644;-68
2021/05/21 08:18:57;;;;;;;1.00;1.00;;;;;;;18.78;75.57;96941.03;5011038;28;20683;-68
2021/05/21 08:21:24;;;;;;;0.97;0.97;;;;;;;19.38;75.72;97047.31;4999980;28;20643;-68
2021/05/21 08:23:51;;;;;;;1.00;1.00;;;;;;;19.38;75.72;97032.03;5010163;28;20256;-70
2021/05/21 08:26:17;;;;;;;0.93;0.93;;;;;;;18.75;75.77;96925.66;4999317;28;20222;-68
2021/05/21 08:28:44;;;;;;;0.90;0.90;;;;;;;19.37;75.49;97020.13;4997830;28;20717;-68
2021/05/21 08:31:11;;;;;;;0.80;0.80;;;;;;;19.12;75.78;96966.69;5008446;28;20202;-71
2021/05/21 08:33:43;;;;;;;0.93;0.87;;;;;;;19.39;75.81;97009.97;4994688;28;20559;-68
2021/05/21 08:36:10;;;;;;;1.10;1.10;;;;;;;19.39;75.71;97008.28;4994794;28;20224;-69
2021/05/21 08:38:38;;;;;;;1.00;1.00;;;;;;;19.25;75.58;96988.28;5012569;28;20205;-67
2021/05/21 08:41:05;;;;;;;0.93;0.93;;;;;;;19.26;75.78;96987.47;4995834;28;20226;-68
2021/05/21 08:43:32;;;;;;;1.00;1.00;;;;;;;19.32;75.64;96997.88;5005182;28;20190;-69
2021/05/21 08:45:59;;;;;;;1.00;1.00;;;;;;;18.80;75.51;96910.53;4988724;28;20317;-69
2021/05/21 08:48:29;;;;;;;0.90;0.90;;;;;;;19.40;75.69;97009.16;5006125;28;20205;-68
2021/05/21 08:50:55;;;;;;;0.80;0.80;;;;;;;19.25;75.75;96986.63;5027235;28;20620;-68
2021/05/21 08:53:22;;;;;;;0.90;0.90;;;;;;;19.38;75.52;97011.66;4995877;28;20201;-67
2021/05/21 08:55:51;;;;;;;0.70;0.70;;;;;;;19.37;75.87;97015.03;4991661;28;20226;-68
2021/05/21 08:58:17;;;;;;;0.90;0.90;;;;;;;19.40;76.08;97014.25;4989143;28;20268;-66
2021/05/21 09:00:44;;;;;;;0.80;0.80;;;;;;;18.79;75.55;96908.78;5024029;28;20214;-67
2021/05/21 09:03:23;;;;;;;1.00;1.00;;;;;;;19.05;75.56;96946.06;5010768;28;20275;-68
2021/05/21 09:06:16;;;;;;;0.80;0.80;;;;;;;19.40;75.34;97001.50;4991885;28;20284;-68
2021/05/21 09:08:51;;;;;;;0.90;0.90;;;;;;;19.40;75.56;97004.06;5005885;28;20197;-67
2021/05/21 09:11:23;;;;;;;0.90;0.90;;;;;;;19.38;75.42;97001.47;5024146;28;20246;-66
2021/05/21 09:13:51;;;;;;;0.80;0.80;;;;;;;19.38;75.45;96998.91;5009874;28;20284;-68
2021/05/21 09:16:21;;;;;;;1.00;1.00;;;;;;;19.39;75.69;96992.16;5022390;28;20579;-68
2021/05/21 09:19:01;;;;;;;1.00;1.00;;;;;;;19.39;75.56;96985.34;5009955;28;20256;-67
2021/05/21 09:21:47;;;;;;;1.00;1.00;;;;;;;19.38;75.62;96983.63;5008053;28;20266;-68
2021/05/21 09:24:14;;;;;;;1.00;1.00;;;;;;;19.40;75.53;96986.22;5024756;28;20201;-69
2021/05/21 09:26:43;;;;;;;0.80;0.80;;;;;;;19.40;75.69;96981.13;5018775;28;20237;-69
2021/05/21 09:29:11;;;;;;;0.90;0.90;;;;;;;19.24;75.49;96954.28;5005227;28;20202;-68
2021/05/21 09:31:45;;;;;;;0.90;0.90;;;;;;;19.14;75.54;96937.03;4989458;28;20251;-66
2021/05/21 09:34:12;;;;;;;1.10;1.10;;;;;;;18.70;75.38;96860.13;4995543;28;20228;-67
2021/05/21 09:36:40;;;;;;;0.80;0.80;;;;;;;19.33;75.51;96963.94;4998630;28;20193;-68
2021/05/21 09:39:10;;;;;;;0.90;0.90;;;;;;;19.26;75.44;96951.78;4996643;28;20202;-69
2021/05/21 09:41:55;;;;;;;0.90;0.90;;;;;;;19.41;75.52;96977.75;5007373;28;20532;-68
2021/05/21 09:44:22;;;;;;;1.00;1.00;;;;;;;19.35;75.26;96967.38;5025764;28;20220;-69
2021/05/21 09:46:50;;;;;;;0.90;0.90;;;;;;;19.25;75.46;96950.09;5027466;28;20201;-67
2021/05/21 09:49:35;;;;;;;1.00;1.00;;;;;;;19.30;75.30;96957.06;5004398;28;20251;-70
2021/05/21 09:52:08;;;;;;;0.90;0.90;;;;;;;18.96;75.37;96890.66;5007967;28;20580;-68
2021/05/21 09:54:57;;;;;;;0.90;0.90;;;;;;;18.92;75.37;96877.78;4991025;28;20225;-68
2021/05/21 09:57:34;;;;;;;0.87;0.87;;;;;;;19.33;75.54;96961.41;5008412;28;20194;-68
2021/05/21 10:00:01;;;;;;;0.80;0.80;;;;;;;18.96;75.32;96892.31;5007054;28;20197;-68
2021/05/21 10:02:29;;;;;;;0.97;0.97;;;;;;;18.89;75.55;96887.88;5006752;28;20221;-65
2021/05/21 10:04:58;;;;;;;0.90;0.90;;;;;;;19.23;75.43;96944.94;4993615;28;20304;-68
2021/05/21 10:07:26;;;;;;;0.80;0.80;;;;;;;18.85;75.70;96870.78;4999538;28;20664;-68
2021/05/21 10:09:52;;;;;;;1.00;1.00;;;;;;;18.78;75.50;96862.13;4993243;28;20610;-67
2021/05/21 10:12:19;;;;;;;0.90;0.90;;;;;;;19.23;75.68;96944.94;4999502;28;20197;-68
2021/05/21 10:14:50;;;;;;;0.90;0.90;;;;;;;19.25;75.29;96953.50;4998518;28;20248;-68
2021/05/21 10:17:22;;;;;;;0.90;0.90;;;;;;;19.38;75.50;96978.53;4992601;28;20198;-68
2021/05/21 10:19:49;;;;;;;1.00;1.00;;;;;;;19.18;75.54;96941.38;4991921;28;20198;-68
2021/05/21 10:22:18;;;;;;;1.03;1.00;;;;;;;19.24;75.38;96949.19;4973297;28;20250;-67
2021/05/21 10:24:45;;;;;;;1.00;1.00;;;;;;;19.33;75.31;96961.41;5004124;28;20222;-67
2021/05/21 10:27:19;;;;;;;1.00;1.00;;;;;;;18.79;75.35;96881.66;4995118;28;20574;-68
2021/05/21 10:29:51;;;;;;;0.90;0.90;;;;;;;18.71;75.40;96867.81;4998191;28;20197;-67
2021/05/21 10:32:18;;;;;;;0.90;0.90;;;;;;;19.39;75.77;97000.63;4990528;28;20237;-65
2021/05/21 10:34:48;;;;;;;0.83;0.83;;;;;;;19.26;75.70;97007.84;5008678;28;20321;-68
2021/05/21 10:37:18;;;;;;;1.00;1.00;;;;;;;19.39;75.27;96994.69;4994854;28;20721;-68
2021/05/21 10:39:59;;;;;;;0.90;0.90;;;;;;;19.39;75.33;96989.59;5005234;28;20232;-68
2021/05/21 10:42:26;;;;;;;0.97;0.97;;;;;;;18.79;75.42;96902.00;5007679;28;20218;-68
2021/05/21 10:45:20;;;;;;;0.83;0.83;;;;;;;18.69;75.29;96900.03;4996335;28;20304;-68
2021/05/21 10:47:56;;;;;;;0.90;0.90;;;;;;;19.39;75.43;97030.38;4998933;28;20663;-69
2021/05/21 10:50:23;;;;;;;1.80;0.80;;;;;;;19.30;75.45;97020.75;5012128;28;20206;-68
2021/05/21 10:52:59;;;;;;;1.10;1.00;;;;;;;19.38;75.42;97043.91;4996313;28;20237;-68
2021/05/21 10:55:58;;;;;;;0.80;0.80;;;;;;;19.38;75.56;97062.63;4997740;28;20217;-68
2021/05/21 10:58:33;;;;;;;0.90;0.90;;;;;;;19.25;75.46;97051.97;4979665;28;20647;-68
2021/05/21 11:01:07;;;;;;;0.90;0.90;;;;;;;19.38;75.42;97077.91;5006232;28;20213;-69
2021/05/21 11:03:58;;;;;;;0.80;0.80;;;;;;;19.39;75.46;97087.28;5030212;28;20679;-68
2021/05/21 11:06:25;;;;;;;1.10;1.10;;;;;;;18.80;75.50;96992.81;5070260;22;20254;-67
2021/05/21 11:09:14;;;;;;;1.00;1.00;;;;;;;19.38;75.44;97085.56;5031791;28;20228;-67
2021/05/21 11:11:54;;;;;;;1.00;1.00;;;;;;;19.38;75.47;97090.66;5040542;28;20297;-66
2021/05/21 11:14:31;;;;;;;0.90;0.90;;;;;;;19.38;75.60;97083.00;5043048;28;20227;-66
2021/05/21 11:17:17;;;;;;;0.80;0.80;;;;;;;19.38;75.34;97074.47;5019795;28;20283;-67
2021/05/21 11:19:51;;;;;;;0.83;0.83;;;;;;;19.38;75.36;97072.81;5007394;28;20248;-66
2021/05/21 11:22:22;;;;;;;0.77;0.77;;;;;;;19.38;75.47;97065.16;5017509;28;20252;-67
2021/05/21 11:24:56;;;;;;;0.83;0.83;;;;;;;19.38;75.57;97066.84;5007633;28;20280;-66
2021/05/21 11:27:22;;;;;;;0.90;0.90;;;;;;;19.38;75.43;97065.16;5018253;28;20201;-66
2021/05/21 11:29:51;;;;;;;1.00;1.00;;;;;;;19.37;75.49;97065.13;5024259;28;20348;-67
2021/05/21 11:32:19;;;;;;;0.90;0.90;;;;;;;19.37;75.58;97063.44;5003629;28;20202;-66
2021/05/21 11:34:47;;;;;;;0.90;0.90;;;;;;;18.29;75.43;96874.09;5019574;28;20202;-67
2021/05/21 11:37:24;;;;;;;1.00;1.00;;;;;;;19.37;75.47;97067.66;4988382;28;20204;-66
2021/05/21 11:39:52;;;;;;;0.90;0.90;;;;;;;19.37;75.49;97073.63;5023480;28;20197;-66
2021/05/21 11:42:23;;;;;;;1.00;1.00;;;;;;;19.37;75.38;97063.44;5021236;28;20252;-66